Decoded Metar for KLQK ( in ) (IATA:) | Meteo·Mobile Aviation Weather
aviador You're here:

KLQK Decoded Metar

in
Report Time2019-09-21 08:35:00
UTC Time2019-09-21 08:51:11
Flight Rules vfr VFR
WindCalm
Visibility9999 m
Phenomena:N/A
Clouds:N/A
CeilingNone
Temp12°C
Dew Point12°C (100% RH)
QNH1026 hPa
Raw Report
KLQK 210835Z AUTO 00000KT 10SM CLR 12/12 A3029 RMK AO2
T01220122=

Extra information for KLQK:More info

Social comments